createdAt,value
2023-02-14T00:02:00.009Z,83.40
2023-02-14T00:04:28.091Z,83.39
2023-02-14T00:06:56.089Z,83.45
2023-02-14T00:09:24.395Z,83.49
2023-02-14T00:11:52.971Z,83.47
2023-02-14T00:14:39.713Z,83.53
2023-02-14T00:17:07.574Z,83.55
2023-02-14T00:19:36.115Z,83.63
2023-02-14T00:22:05.368Z,83.65
2023-02-14T00:24:33.321Z,83.72
2023-02-14T00:27:01.314Z,83.76
2023-02-14T00:29:31.680Z,83.82
2023-02-14T00:32:00.572Z,83.83
2023-02-14T00:34:29.122Z,83.82
2023-02-14T00:36:57.096Z,83.85
2023-02-14T00:39:25.429Z,83.85
2023-02-14T00:41:53.655Z,83.90
2023-02-14T00:44:22.961Z,83.89
2023-02-14T00:46:51.042Z,83.91
2023-02-14T00:49:19.034Z,83.87
2023-02-14T00:51:47.607Z,83.89
2023-02-14T00:54:15.599Z,83.93
2023-02-14T00:56:43.508Z,83.94
2023-02-14T00:59:12.062Z,83.97
2023-02-14T01:01:40.309Z,83.93
2023-02-14T01:04:08.314Z,83.94
2023-02-14T01:06:36.388Z,83.98
2023-02-14T01:09:04.997Z,84.00
2023-02-14T01:11:34.489Z,83.92
2023-02-14T01:14:02.428Z,83.91
2023-02-14T01:16:30.453Z,83.88
2023-02-14T01:19:01.323Z,83.92
2023-02-14T01:21:32.994Z,83.97
2023-02-14T01:24:04.151Z,83.97
2023-02-14T01:26:32.540Z,84.01
2023-02-14T01:29:03.781Z,84.05
2023-02-14T01:31:33.919Z,84.09
2023-02-14T01:34:02.314Z,84.15
2023-02-14T01:36:39.521Z,84.23
2023-02-14T01:39:13.682Z,84.25
2023-02-14T01:41:43.798Z,84.34
2023-02-14T01:44:38.420Z,84.40
2023-02-14T01:47:10.428Z,84.44
2023-02-14T01:49:50.114Z,84.54
2023-02-14T01:52:23.938Z,84.66
2023-02-14T01:55:24.011Z,84.68
2023-02-14T01:57:58.920Z,84.78
2023-02-14T02:00:46.864Z,84.77
2023-02-14T02:03:17.766Z,84.83
2023-02-14T02:05:51.745Z,84.89
2023-02-14T02:08:20.293Z,84.99
2023-02-14T02:10:48.315Z,84.99
2023-02-14T02:13:21.584Z,85.11
2023-02-14T02:15:58.377Z,85.18
2023-02-14T02:19:02.299Z,85.24
2023-02-14T02:21:39.061Z,85.37
2023-02-14T02:24:40.801Z,85.48
2023-02-14T02:27:18.420Z,85.48
2023-02-14T02:30:24.315Z,85.59
2023-02-14T02:36:44.208Z,85.71
2023-02-14T02:39:36.924Z,85.75
2023-02-14T02:42:24.422Z,85.86
2023-02-14T02:45:04.702Z,85.87
2023-02-14T02:47:36.450Z,85.98
2023-02-14T02:50:45.364Z,86.08
2023-02-14T02:53:48.262Z,86.11
2023-02-14T02:56:44.456Z,86.13
2023-02-14T02:59:23.468Z,86.19
2023-02-14T03:02:20.838Z,86.16
2023-02-14T03:04:59.048Z,86.17
2023-02-14T03:07:39.205Z,86.28
2023-02-14T03:10:14.357Z,86.34
2023-02-14T03:12:55.647Z,86.36
2023-02-14T03:15:58.150Z,86.40
2023-02-14T03:18:44.827Z,86.43
2023-02-14T03:21:42.373Z,86.42
2023-02-14T03:24:47.415Z,86.49
2023-02-14T03:27:25.339Z,86.51
2023-02-14T03:30:13.217Z,86.68
2023-02-14T03:33:04.133Z,86.76
2023-02-14T03:35:38.000Z,86.82
2023-02-14T03:38:15.891Z,86.81
2023-02-14T03:40:54.781Z,86.93
2023-02-14T03:43:32.372Z,86.99
2023-02-14T03:46:44.787Z,87.17
2023-02-14T03:49:17.588Z,87.23
2023-02-14T03:51:49.946Z,87.27
2023-02-14T03:54:19.817Z,87.29
2023-02-14T03:57:01.418Z,87.31
2023-02-14T03:59:29.565Z,87.40
2023-02-14T04:02:47.404Z,87.51
2023-02-14T04:05:27.389Z,87.56
2023-02-14T04:07:58.756Z,87.58
2023-02-14T04:10:28.347Z,87.55
2023-02-14T04:12:56.482Z,87.63
2023-02-14T04:15:24.571Z,87.62
2023-02-14T04:18:11.110Z,87.68
2023-02-14T04:20:39.112Z,87.72
2023-02-14T04:23:07.130Z,87.73
2023-02-14T04:25:35.141Z,87.90
2023-02-14T04:28:03.069Z,87.99
2023-02-14T04:34:38.215Z,88.00
2023-02-14T04:37:07.261Z,88.08
2023-02-14T04:39:36.021Z,88.21
2023-02-14T04:42:05.261Z,88.21
2023-02-14T04:44:38.194Z,88.24
2023-02-14T04:47:06.866Z,88.36
2023-02-14T04:49:35.550Z,88.42
2023-02-14T04:52:04.428Z,88.39
2023-02-14T04:54:33.112Z,88.40
2023-02-14T04:57:01.531Z,88.41
2023-02-14T04:59:29.737Z,88.47
2023-02-14T05:01:58.340Z,88.41
2023-02-14T05:04:27.171Z,88.48
2023-02-14T05:06:55.148Z,88.57
2023-02-14T05:09:23.545Z,88.56
2023-02-14T05:11:51.808Z,88.56
2023-02-14T05:14:19.779Z,88.63
2023-02-14T05:16:47.861Z,88.71
2023-02-14T05:19:15.892Z,88.74
2023-02-14T05:21:43.908Z,88.69
2023-02-14T05:24:12.017Z,88.66
2023-02-14T05:26:41.045Z,88.62
2023-02-14T05:29:09.098Z,88.71
2023-02-14T05:31:37.255Z,88.78
2023-02-14T05:34:05.400Z,88.82
2023-02-14T05:36:33.603Z,88.88
2023-02-14T05:39:01.683Z,88.91
2023-02-14T05:41:29.683Z,88.97
2023-02-14T05:43:57.890Z,89.01
2023-02-14T05:46:25.932Z,89.02
2023-02-14T05:48:53.868Z,89.05
2023-02-14T05:51:21.884Z,89.05
2023-02-14T05:53:50.122Z,89.03
2023-02-14T05:56:18.293Z,89.09
2023-02-14T05:58:46.401Z,89.08
2023-02-14T06:01:14.452Z,89.25
2023-02-14T06:03:42.443Z,89.25
2023-02-14T06:06:11.138Z,89.22
2023-02-14T06:08:39.144Z,89.25
2023-02-14T06:11:07.042Z,89.24
2023-02-14T06:13:35.059Z,89.22
2023-02-14T06:16:04.431Z,89.21
2023-02-14T06:18:32.603Z,89.17
2023-02-14T06:21:01.130Z,89.23
2023-02-14T06:23:29.560Z,89.24
2023-02-14T06:25:58.351Z,89.23
2023-02-14T06:28:27.203Z,89.23
2023-02-14T06:30:55.312Z,89.26
2023-02-14T06:33:23.534Z,89.32
2023-02-14T06:35:54.294Z,89.40
2023-02-14T06:38:22.259Z,89.45
2023-02-14T06:40:50.340Z,89.51
2023-02-14T06:43:19.097Z,89.57
2023-02-14T06:45:47.779Z,89.64
2023-02-14T06:48:16.328Z,89.65
2023-02-14T06:50:44.428Z,89.66
2023-02-14T06:53:12.502Z,89.66
2023-02-14T06:55:42.417Z,89.65
2023-02-14T06:58:11.784Z,89.71
2023-02-14T07:00:39.842Z,89.75
2023-02-14T07:03:08.827Z,89.74
2023-02-14T07:05:37.052Z,89.76
2023-02-14T07:08:07.300Z,89.75
2023-02-14T07:10:35.689Z,89.80
2023-02-14T07:13:03.818Z,89.79
2023-02-14T07:15:32.338Z,89.76
2023-02-14T07:18:01.307Z,89.79
2023-02-14T07:20:29.837Z,89.69
2023-02-14T07:22:57.983Z,89.65
2023-02-14T07:25:28.296Z,89.71
2023-02-14T07:27:56.451Z,89.66
2023-02-14T07:30:25.191Z,89.61
2023-02-14T07:32:53.264Z,89.57
2023-02-14T07:35:21.291Z,89.56
2023-02-14T07:37:52.915Z,89.52
2023-02-14T07:40:21.154Z,89.54
2023-02-14T07:42:54.341Z,89.53
2023-02-14T07:45:23.278Z,89.48
2023-02-14T07:47:54.176Z,89.43
2023-02-14T07:50:23.241Z,89.39
2023-02-14T07:52:51.769Z,89.28
2023-02-14T07:55:20.402Z,89.20
2023-02-14T07:57:49.507Z,89.12
2023-02-14T08:00:18.782Z,88.98
2023-02-14T08:02:46.865Z,88.83
2023-02-14T08:05:15.592Z,88.71
2023-02-14T08:07:44.363Z,88.73
2023-02-14T08:10:13.255Z,88.77
2023-02-14T08:13:00.111Z,88.81
2023-02-14T08:15:53.426Z,88.84
2023-02-14T08:18:27.200Z,88.85
2023-02-14T08:20:55.329Z,88.83
2023-02-14T08:23:23.794Z,88.87
2023-02-14T08:25:52.710Z,88.88
2023-02-14T08:28:23.765Z,88.87
2023-02-14T08:30:52.417Z,88.86
2023-02-14T08:33:21.378Z,88.82
2023-02-14T08:35:51.921Z,88.78
2023-02-14T08:38:20.180Z,88.68
2023-02-14T08:40:48.476Z,88.56
2023-02-14T08:43:16.912Z,88.50
2023-02-14T08:45:44.924Z,88.50
2023-02-14T08:48:13.598Z,88.45
2023-02-14T08:50:41.844Z,88.39
2023-02-14T08:53:11.939Z,88.29
2023-02-14T08:55:40.468Z,88.30
2023-02-14T08:58:09.018Z,88.35
2023-02-14T09:00:37.106Z,88.31
2023-02-14T09:03:05.100Z,88.24
2023-02-14T09:05:34.522Z,88.14
2023-02-14T09:08:04.701Z,87.96
2023-02-14T09:10:32.755Z,87.70
2023-02-14T09:13:01.007Z,87.27
2023-02-14T09:15:29.003Z,87.42
2023-02-14T09:17:56.988Z,87.51
2023-02-14T09:20:25.388Z,87.50
2023-02-14T09:22:57.222Z,87.29
2023-02-14T09:25:25.119Z,87.33
2023-02-14T09:27:53.287Z,87.39
2023-02-14T09:30:21.383Z,87.52
2023-02-14T09:32:51.704Z,87.64
2023-02-14T09:35:38.204Z,87.60
2023-02-14T09:38:20.898Z,87.64
2023-02-14T09:40:50.589Z,87.60
2023-02-14T09:43:30.873Z,87.62
2023-02-14T09:46:02.423Z,87.71
2023-02-14T09:48:38.094Z,87.67
2023-02-14T09:51:13.029Z,87.66
2023-02-14T09:53:45.387Z,87.78
2023-02-14T09:56:23.364Z,87.77
2023-02-14T09:59:15.798Z,87.73
2023-02-14T10:01:48.848Z,87.81
2023-02-14T10:04:33.963Z,87.83
2023-02-14T10:07:18.385Z,87.78
2023-02-14T10:09:55.727Z,87.74
2023-02-14T10:12:33.745Z,87.75
2023-02-14T10:15:12.186Z,87.79
2023-02-14T10:18:25.610Z,87.74
2023-02-14T10:20:58.390Z,87.78
2023-02-14T10:23:35.702Z,87.74
2023-02-14T10:26:18.386Z,87.78
2023-02-14T10:28:54.351Z,87.84
2023-02-14T10:31:51.631Z,87.91
2023-02-14T10:34:25.184Z,87.81
2023-02-14T10:37:01.166Z,87.81
2023-02-14T10:39:47.747Z,87.87
2023-02-14T10:42:28.012Z,87.85
2023-02-14T10:45:39.145Z,87.75
2023-02-14T10:48:25.123Z,87.77
2023-02-14T10:51:04.502Z,87.76
2023-02-14T10:53:54.375Z,87.82
2023-02-14T10:56:39.054Z,87.96
2023-02-14T10:59:24.450Z,88.04
2023-02-14T11:04:37.752Z,87.90
2023-02-14T11:07:13.039Z,87.97
2023-02-14T11:09:40.985Z,87.98
2023-02-14T11:12:09.225Z,87.97
2023-02-14T11:14:40.834Z,88.01
2023-02-14T11:17:31.605Z,88.02
2023-02-14T11:20:20.609Z,87.93
2023-02-14T11:22:49.655Z,87.86
2023-02-14T11:25:31.836Z,87.89
2023-02-14T11:28:18.311Z,87.79
2023-02-14T11:30:48.469Z,87.61
2023-02-14T11:33:40.743Z,87.58
2023-02-14T11:36:16.751Z,87.65
2023-02-14T11:38:54.943Z,87.65
2023-02-14T11:41:24.456Z,87.44
2023-02-14T11:44:14.690Z,87.43
2023-02-14T11:46:52.722Z,87.55
2023-02-14T11:49:35.273Z,87.49
2023-02-14T11:52:11.827Z,87.50
2023-02-14T11:54:41.645Z,87.40
2023-02-14T11:57:14.883Z,87.42
2023-02-14T11:59:49.658Z,87.36
2023-02-14T12:02:43.602Z,87.32
2023-02-14T12:05:20.589Z,87.33
2023-02-14T12:07:54.594Z,87.35
2023-02-14T12:10:27.170Z,87.23
2023-02-14T12:13:10.203Z,87.04
2023-02-14T12:15:38.744Z,87.01
2023-02-14T12:18:09.397Z,87.00
2023-02-14T12:21:25.216Z,87.00
2023-02-14T12:24:16.695Z,87.00
2023-02-14T12:26:51.179Z,87.01
2023-02-14T12:29:41.438Z,86.68
2023-02-14T12:32:21.793Z,86.39
2023-02-14T12:34:50.595Z,86.46
2023-02-14T12:37:43.606Z,86.52
2023-02-14T12:40:40.702Z,86.30
2023-02-14T12:43:39.874Z,86.32
2023-02-14T12:46:16.873Z,86.31
2023-02-14T12:48:54.997Z,86.26
2023-02-14T12:51:48.485Z,86.04
2023-02-14T12:54:32.234Z,85.79
2023-02-14T12:57:13.010Z,85.73
2023-02-14T13:00:04.304Z,85.70
2023-02-14T13:02:41.198Z,85.80
2023-02-14T13:05:14.868Z,85.97
2023-02-14T13:08:01.046Z,86.02
2023-02-14T13:10:45.278Z,85.98
2023-02-14T13:13:33.689Z,86.01
2023-02-14T19:04:37.040Z,87.73
